createdAt,value
2022-12-13T00:03:41.537Z,98016.41
2022-12-13T00:09:07.430Z,98015.75
2022-12-13T00:14:34.542Z,98011.53
2022-12-13T00:19:59.459Z,97995.13
2022-12-13T00:25:27.424Z,97997.78
2022-12-13T00:30:55.448Z,98002.19
2022-12-13T00:36:20.436Z,98000.59
2022-12-13T00:41:45.465Z,98005.13
2022-12-13T00:47:12.481Z,98001.75
2022-12-13T00:52:43.577Z,98002.75
2022-12-13T00:58:08.547Z,97997.69
2022-12-13T01:03:35.508Z,97995.97
2022-12-13T01:09:00.467Z,97987.41
2022-12-13T01:14:24.485Z,97981.47
2022-12-13T01:19:52.561Z,97981.53
2022-12-13T01:25:16.642Z,97976.41
2022-12-13T01:30:41.490Z,97970.44
2022-12-13T01:36:09.445Z,97968.78
2022-12-13T01:41:34.458Z,97958.53
2022-12-13T01:46:58.461Z,97966.41
2022-12-13T01:52:32.490Z,97962.13
2022-12-13T01:58:00.691Z,97963.13
2022-12-13T02:03:25.474Z,97960.63
2022-12-13T02:08:54.539Z,97966.72
2022-12-13T02:14:18.585Z,97957.31
2022-12-13T02:20:10.468Z,97959.94
2022-12-13T02:26:00.513Z,97966.19
2022-12-13T02:31:37.614Z,97963.94
2022-12-13T02:37:17.453Z,97953.53
2022-12-13T02:42:47.459Z,97954.56
2022-12-13T02:48:18.549Z,97950.28
2022-12-13T02:53:52.538Z,97952.94
2022-12-13T02:59:23.502Z,97953.00
2022-12-13T03:05:17.695Z,97948.75
2022-12-13T03:10:52.521Z,97953.97
2022-12-13T03:16:23.598Z,97949.75
2022-12-13T03:21:54.466Z,97941.22
2022-12-13T03:27:20.552Z,97936.03
2022-12-13T03:32:45.511Z,97939.53
2022-12-13T03:38:12.518Z,97932.72
2022-12-13T03:43:48.588Z,97937.13
2022-12-13T03:49:17.055Z,97938.09
2022-12-13T03:54:51.521Z,97935.56
2022-12-13T04:00:18.500Z,97942.63
2022-12-13T04:05:42.518Z,97936.59
2022-12-13T04:11:30.594Z,97931.47
2022-12-13T04:16:55.515Z,97928.94
2022-12-13T04:22:24.857Z,97924.72
2022-12-13T04:27:51.574Z,97917.06
2022-12-13T04:33:16.511Z,97909.31
2022-12-13T04:38:40.497Z,97914.50
2022-12-13T04:44:27.951Z,97917.16
2022-12-13T04:49:52.564Z,97920.66
2022-12-13T04:55:18.581Z,97923.31
2022-12-13T05:00:45.565Z,97912.13
2022-12-13T05:06:27.542Z,97912.16
2022-12-13T05:11:51.526Z,97920.94
2022-12-13T05:17:19.533Z,97917.50
2022-12-13T05:22:45.562Z,97905.44
2022-12-13T05:28:27.864Z,97916.75
2022-12-13T05:33:55.522Z,97914.16
2022-12-13T05:39:28.637Z,97923.81
2022-12-13T05:44:54.668Z,97921.28
2022-12-13T05:50:24.588Z,97919.56
2022-12-13T05:55:50.513Z,97919.56
2022-12-13T06:01:17.546Z,97921.28
2022-12-13T06:06:44.544Z,97917.91
2022-12-13T06:12:31.091Z,97911.84
2022-12-13T06:17:53.525Z,97924.91
2022-12-13T06:23:21.539Z,97920.63
2022-12-13T06:28:45.539Z,97925.88
2022-12-13T06:34:14.465Z,97925.03
2022-12-13T06:39:42.660Z,97926.81
2022-12-13T06:45:07.617Z,97932.06
2022-12-13T06:50:31.556Z,97936.47
2022-12-13T06:55:59.546Z,97948.56
2022-12-13T07:01:26.627Z,97957.22
2022-12-13T07:06:51.579Z,97953.81
2022-12-13T07:12:18.549Z,97948.66
2022-12-13T07:17:43.545Z,97945.22
2022-12-13T07:23:08.598Z,97948.72
2022-12-13T07:28:36.566Z,97944.38
2022-12-13T07:34:00.551Z,97955.63
2022-12-13T07:39:25.581Z,97964.25
2022-12-13T07:44:52.575Z,97963.38
2022-12-13T07:50:24.787Z,97957.16
2022-12-13T07:55:50.630Z,97951.91
2022-12-13T08:01:19.591Z,97954.28
2022-12-13T08:06:44.782Z,97960.19
2022-12-13T08:12:09.613Z,97961.72
2022-12-13T08:17:37.562Z,97967.53
2022-12-13T08:23:04.598Z,97960.38
2022-12-13T08:28:28.640Z,97966.22
2022-12-13T08:33:56.701Z,97965.94
2022-12-13T08:39:20.618Z,97977.88
2022-12-13T08:44:45.562Z,97979.34
2022-12-13T08:50:13.589Z,97976.25
2022-12-13T08:55:38.608Z,97968.00
2022-12-13T09:01:02.627Z,97970.22
2022-12-13T09:06:30.601Z,97972.44
2022-12-13T09:11:59.707Z,97979.00
2022-12-13T09:17:25.270Z,97969.06
2022-12-13T09:22:52.602Z,97960.03
2022-12-13T09:28:27.606Z,97960.44
2022-12-13T09:33:53.615Z,97958.22
2022-12-13T09:39:21.565Z,97962.38
2022-12-13T09:44:54.389Z,97958.16
2022-12-13T09:50:38.568Z,97948.94
2022-12-13T09:56:10.787Z,97951.97
2022-12-13T10:01:35.628Z,97958.38
2022-12-13T10:07:01.781Z,97945.88
2022-12-13T10:12:31.634Z,97938.44
2022-12-13T10:17:56.608Z,97930.13
2022-12-13T10:24:06.946Z,97933.13
2022-12-13T10:29:18.645Z,97933.41
2022-12-13T10:34:46.620Z,97919.22
2022-12-13T10:40:11.682Z,97915.25
2022-12-13T10:45:40.703Z,97914.03
2022-12-13T10:51:16.601Z,97912.75
2022-12-13T10:56:45.609Z,97912.03
2022-12-13T11:02:12.627Z,97902.16
2022-12-13T11:07:40.624Z,97892.00
2022-12-13T11:13:06.636Z,97904.69
2022-12-13T11:18:36.633Z,97896.41
2022-12-13T11:24:02.637Z,97883.09
2022-12-13T11:29:58.633Z,97887.75
2022-12-13T11:35:31.630Z,97883.91
2022-12-13T11:41:03.639Z,97881.63
2022-12-13T11:46:34.614Z,97882.16
2022-12-13T11:52:10.656Z,97872.09
2022-12-13T11:57:47.654Z,97868.13
2022-12-13T12:03:40.673Z,97851.78
2022-12-13T12:09:12.625Z,97850.41
2022-12-13T12:14:47.640Z,97854.50
2022-12-13T12:20:23.932Z,97847.25
2022-12-13T12:25:57.668Z,97850.25
2022-12-13T12:31:31.644Z,97846.09
2022-12-13T12:37:10.661Z,97836.44
2022-12-13T12:43:14.287Z,97834.94
2022-12-13T12:49:11.239Z,97825.84
2022-12-13T12:54:57.664Z,97818.97
2022-12-13T13:00:28.677Z,97818.03
2022-12-13T13:06:02.477Z,97820.50
2022-12-13T13:11:28.692Z,97823.72
2022-12-13T13:16:57.664Z,97817.78
2022-12-13T13:22:58.431Z,97808.22
2022-12-13T13:28:37.090Z,97812.63
2022-12-13T13:34:04.696Z,97808.66
2022-12-13T13:39:32.751Z,97797.22
2022-12-13T13:45:27.712Z,97804.94
2022-12-13T13:51:23.754Z,97804.28
2022-12-13T13:57:22.267Z,97808.97
2022-12-13T14:03:33.265Z,97810.94
2022-12-13T14:09:22.702Z,97810.34
2022-12-13T14:15:17.705Z,97814.13
2022-12-13T14:21:01.688Z,97803.25
2022-12-13T14:26:40.697Z,97804.84
2022-12-13T14:32:05.725Z,97808.66
2022-12-13T14:37:40.702Z,97809.03
2022-12-13T14:43:09.751Z,97806.50
2022-12-13T14:48:52.031Z,97825.66
2022-12-13T14:54:21.177Z,97827.16
2022-12-13T15:00:01.697Z,97816.06
2022-12-13T15:05:34.690Z,97821.19
2022-12-13T15:11:06.673Z,97806.69
2022-12-13T15:16:38.740Z,97803.53
2022-12-13T15:22:12.684Z,97800.78
2022-12-13T15:27:42.689Z,97807.44
2022-12-13T15:33:30.681Z,97802.91
2022-12-13T15:39:10.630Z,97806.56
2022-12-13T15:44:43.720Z,97805.69
2022-12-13T15:50:16.709Z,97808.22
2022-12-13T15:55:47.710Z,97801.59
2022-12-13T16:01:12.715Z,97798.56
2022-12-13T16:06:41.724Z,97791.38
2022-12-13T16:12:09.708Z,97789.06
2022-12-13T16:17:39.857Z,97787.59
2022-12-13T16:23:09.242Z,97785.19
2022-12-13T16:28:34.701Z,97782.66
2022-12-13T16:33:59.726Z,97794.28
2022-12-13T16:39:28.838Z,97792.94
2022-12-13T16:45:11.313Z,97790.53
2022-12-13T16:50:32.740Z,97788.16
2022-12-13T16:56:06.728Z,97779.69
2022-12-13T17:01:31.771Z,97788.72
2022-12-13T17:06:56.721Z,97776.84
2022-12-13T17:12:24.738Z,97776.13
2022-12-13T17:17:48.754Z,97782.50
2022-12-13T17:23:17.982Z,97791.28
2022-12-13T17:28:46.978Z,97787.75
2022-12-13T17:34:11.722Z,97786.88
2022-12-13T17:39:35.759Z,97784.25
2022-12-13T17:45:03.732Z,97785.25
2022-12-13T17:50:28.910Z,97774.09
2022-12-13T17:56:00.758Z,97764.81
2022-12-13T18:01:29.989Z,97757.91
2022-12-13T18:06:54.740Z,97751.06
2022-12-13T18:12:25.758Z,97750.97
2022-12-13T18:23:38.735Z,97758.63
2022-12-13T18:29:08.051Z,97747.31
2022-12-13T18:34:35.777Z,97749.28
2022-12-13T18:40:00.737Z,97745.25
2022-12-13T18:45:26.744Z,97745.38
2022-12-13T18:50:54.770Z,97752.44
2022-12-13T18:56:27.740Z,97760.38
2022-12-13T19:01:52.814Z,97762.91
2022-12-13T19:07:21.781Z,97759.53
2022-12-13T19:12:46.799Z,97747.63
2022-12-13T19:18:10.789Z,97743.84
2022-12-13T19:23:40.771Z,97742.00
2022-12-13T19:29:04.795Z,97747.91
2022-12-13T19:34:29.931Z,97742.47
2022-12-13T19:39:56.756Z,97735.53
2022-12-13T19:45:21.789Z,97735.44
2022-12-13T19:50:52.070Z,97730.22
2022-12-13T19:56:28.766Z,97719.81
2022-12-13T20:01:53.832Z,97720.06
2022-12-13T20:07:17.780Z,97722.91
2022-12-13T20:12:45.805Z,97719.72
2022-12-13T20:18:10.837Z,97725.94
2022-12-13T20:23:35.763Z,97712.06
2022-12-13T20:29:03.786Z,97703.28
2022-12-13T20:34:28.798Z,97695.44
2022-12-13T20:39:52.794Z,97686.56
2022-12-13T20:45:21.806Z,97688.13
2022-12-13T20:50:46.962Z,97682.72
2022-12-13T20:56:20.769Z,97681.69
2022-12-13T21:01:50.311Z,97680.56
2022-12-13T21:07:13.811Z,97680.34
2022-12-13T21:12:38.803Z,97673.06
2022-12-13T21:18:05.794Z,97667.59
2022-12-13T21:23:30.832Z,97668.25
2022-12-13T21:28:55.786Z,97669.00
2022-12-13T21:34:23.810Z,97665.47
2022-12-13T21:39:49.832Z,97663.63
2022-12-13T21:45:16.795Z,97659.19
2022-12-13T21:50:43.819Z,97659.09
2022-12-13T21:56:27.804Z,97648.34
2022-12-13T22:02:10.891Z,97639.25
2022-12-13T22:07:40.809Z,97635.69
2022-12-13T22:13:05.820Z,97628.44
2022-12-13T22:18:30.852Z,97614.41
2022-12-13T22:24:01.822Z,97611.66
2022-12-13T22:29:27.831Z,97611.56
2022-12-13T22:34:52.852Z,97612.44
2022-12-13T22:40:20.840Z,97605.31
2022-12-13T22:45:45.840Z,97593.06
2022-12-13T22:51:09.846Z,97588.63
2022-12-13T22:56:37.847Z,97589.31
2022-12-13T23:02:04.103Z,97582.22
2022-12-13T23:07:28.848Z,97575.88
2022-12-13T23:13:08.806Z,97563.31
2022-12-13T23:18:33.804Z,97561.38
2022-12-13T23:23:57.818Z,97551.44
2022-12-13T23:29:25.822Z,97544.88
2022-12-13T23:34:49.823Z,97533.31
2022-12-13T23:40:16.862Z,97532.06
2022-12-13T23:45:44.025Z,97525.91
2022-12-13T23:51:08.881Z,97522.16
2022-12-13T23:56:33.845Z,97509.88
